createdAt,value
2019-06-08T00:00:42.385Z,15.70
2019-06-08T00:03:13.190Z,15.70
2019-06-08T00:05:44.520Z,15.70
2019-06-08T00:08:14.916Z,15.70
2019-06-08T00:10:45.120Z,15.80
2019-06-08T00:13:15.306Z,15.80
2019-06-08T00:15:45.540Z,15.80
2019-06-08T00:18:15.755Z,15.80
2019-06-08T00:20:46.052Z,15.70
2019-06-08T00:23:16.259Z,15.70
2019-06-08T00:25:46.454Z,15.70
2019-06-08T00:28:16.695Z,15.70
2019-06-08T00:30:46.872Z,15.70
2019-06-08T00:33:17.425Z,15.70
2019-06-08T00:35:48.698Z,15.80
2019-06-08T00:38:18.909Z,15.80
2019-06-08T00:40:49.125Z,15.80
2019-06-08T00:43:19.316Z,15.80
2019-06-08T00:45:49.534Z,15.80
2019-06-08T00:48:21.049Z,15.70
2019-06-08T00:50:51.314Z,15.60
2019-06-08T00:53:23.251Z,15.60
2019-06-08T00:55:53.492Z,15.60
2019-06-08T00:58:24.253Z,15.50
2019-06-08T01:00:54.674Z,15.50
2019-06-08T01:03:25.829Z,15.50
2019-06-08T01:05:56.084Z,15.50
2019-06-08T01:08:27.369Z,15.50
2019-06-08T01:10:57.712Z,15.60
2019-06-08T01:13:28.986Z,15.60
2019-06-08T01:15:59.267Z,15.70
2019-06-08T01:18:29.482Z,15.70
2019-06-08T01:20:59.676Z,15.70
2019-06-08T01:23:29.895Z,15.70
2019-06-08T01:26:00.114Z,15.70
2019-06-08T01:28:30.356Z,15.70
2019-06-08T01:31:00.555Z,15.80
2019-06-08T01:33:30.901Z,15.80
2019-06-08T01:36:01.166Z,15.80
2019-06-08T01:38:31.384Z,15.80
2019-06-08T01:41:01.584Z,15.80
2019-06-08T01:43:31.870Z,15.90
2019-06-08T01:46:02.102Z,15.90
2019-06-08T01:48:32.404Z,15.90
2019-06-08T01:51:02.632Z,15.90
2019-06-08T01:53:33.036Z,15.90
2019-06-08T01:56:03.322Z,15.90
2019-06-08T01:58:33.567Z,15.90
2019-06-08T02:01:03.952Z,15.80
2019-06-08T02:03:34.809Z,15.80
2019-06-08T02:06:05.440Z,15.80
2019-06-08T02:08:35.702Z,15.80
2019-06-08T02:11:06.457Z,15.80
2019-06-08T02:13:36.686Z,15.80
2019-06-08T02:16:06.946Z,15.80
2019-06-08T02:18:49.896Z,15.80
2019-06-08T02:21:09.079Z,15.80
2019-06-08T02:23:39.743Z,15.80
2019-06-08T02:26:10.020Z,15.80
2019-06-08T02:28:40.236Z,15.80
2019-06-08T02:31:10.541Z,15.80
2019-06-08T02:33:42.469Z,15.80
2019-06-08T02:36:12.691Z,15.80
2019-06-08T02:38:42.887Z,15.80
2019-06-08T02:41:13.103Z,15.80
2019-06-08T02:43:43.679Z,15.80
2019-06-08T02:46:13.904Z,15.70
2019-06-08T02:49:02.731Z,15.80
2019-06-08T02:51:16.214Z,15.80
2019-06-08T02:53:47.173Z,15.80
2019-06-08T02:56:18.700Z,15.80
2019-06-08T02:58:51.344Z,15.80
2019-06-08T03:01:23.095Z,15.80
2019-06-08T03:03:55.237Z,15.80
2019-06-08T03:06:30.286Z,15.80
2019-06-08T03:09:05.459Z,15.90
2019-06-08T03:11:36.970Z,15.80
2019-06-08T03:14:07.432Z,15.80
2019-06-08T03:16:39.019Z,15.80
2019-06-08T03:19:21.950Z,15.80
2019-06-08T03:21:42.451Z,15.80
2019-06-08T03:24:12.852Z,15.80
2019-06-08T03:26:44.213Z,15.80
2019-06-08T03:29:14.540Z,15.90
2019-06-08T03:31:54.656Z,15.90
2019-06-08T03:34:16.730Z,15.80
2019-06-08T03:36:55.146Z,15.90
2019-06-08T03:39:18.861Z,15.90
2019-06-08T03:41:49.072Z,15.90
2019-06-08T03:44:19.282Z,15.90
2019-06-08T03:46:49.505Z,15.90
2019-06-08T03:49:37.147Z,15.90
2019-06-08T03:51:51.612Z,15.80
2019-06-08T03:54:22.981Z,15.80
2019-06-08T03:56:53.194Z,15.80
2019-06-08T03:59:23.426Z,15.80
2019-06-08T04:01:53.620Z,15.90
2019-06-08T04:04:23.865Z,15.90
2019-06-08T04:06:54.086Z,15.90
2019-06-08T04:09:24.282Z,15.90
2019-06-08T04:11:54.474Z,15.90
2019-06-08T04:14:24.688Z,15.90
2019-06-08T04:16:54.996Z,15.90
2019-06-08T04:19:25.232Z,15.90
2019-06-08T04:21:55.424Z,15.90
2019-06-08T04:24:25.654Z,15.90
2019-06-08T04:26:55.849Z,15.90
2019-06-08T04:29:26.057Z,15.90
2019-06-08T04:31:56.260Z,15.80
2019-06-08T04:34:26.489Z,15.80
2019-06-08T04:36:56.698Z,15.80
2019-06-08T04:39:26.947Z,15.80
2019-06-08T04:41:57.140Z,15.80
2019-06-08T04:44:27.380Z,15.80
2019-06-08T04:46:57.659Z,15.80
2019-06-08T04:49:27.894Z,15.70
2019-06-08T04:51:58.080Z,15.70
2019-06-08T04:54:28.305Z,15.70
2019-06-08T04:56:58.517Z,15.60
2019-06-08T04:59:28.697Z,15.60
2019-06-08T05:01:58.900Z,15.60
2019-06-08T05:04:29.126Z,15.60
2019-06-08T05:06:59.334Z,15.60
2019-06-08T05:09:29.627Z,15.60
2019-06-08T05:11:59.815Z,15.60
2019-06-08T05:14:30.051Z,15.60
2019-06-08T05:17:00.217Z,15.60
2019-06-08T05:19:30.488Z,15.60
2019-06-08T05:22:00.730Z,15.70
2019-06-08T05:24:30.926Z,15.70
2019-06-08T05:27:01.156Z,15.70
2019-06-08T05:29:31.357Z,15.80
2019-06-08T05:32:01.584Z,15.80
2019-06-08T05:34:31.808Z,15.80
2019-06-08T05:37:02.022Z,15.80
2019-06-08T05:39:32.251Z,15.80
2019-06-08T05:42:02.488Z,15.80
2019-06-08T05:44:34.435Z,15.80
2019-06-08T05:47:04.725Z,15.80
2019-06-08T05:49:34.955Z,15.70
2019-06-08T05:52:05.734Z,15.70
2019-06-08T05:54:35.931Z,15.70
2019-06-08T05:57:06.265Z,15.70
2019-06-08T05:59:36.451Z,15.70
2019-06-08T06:02:06.868Z,15.70
2019-06-08T06:04:37.087Z,15.70
2019-06-08T06:07:07.308Z,15.70
2019-06-08T06:09:37.516Z,15.70
2019-06-08T06:12:07.765Z,15.70
2019-06-08T06:14:37.960Z,15.80
2019-06-08T06:17:08.175Z,15.80
2019-06-08T06:19:38.399Z,15.80
2019-06-08T06:22:08.594Z,15.80
2019-06-08T06:24:38.810Z,15.80
2019-06-08T06:27:09.018Z,15.70
2019-06-08T06:29:39.263Z,15.70
2019-06-08T06:32:09.528Z,15.70
2019-06-08T06:34:39.720Z,15.80
2019-06-08T06:37:09.926Z,15.80
2019-06-08T06:39:40.232Z,15.90
2019-06-08T06:42:10.456Z,15.90
2019-06-08T06:44:42.102Z,15.90
2019-06-08T06:47:12.609Z,15.90
2019-06-08T06:49:44.410Z,15.90
2019-06-08T06:52:14.814Z,15.90
2019-06-08T06:54:45.018Z,15.90
2019-06-08T06:57:15.241Z,16.00
2019-06-08T06:59:45.710Z,16.00
2019-06-08T07:02:16.823Z,16.00
2019-06-08T07:04:48.208Z,16.10
2019-06-08T07:07:18.567Z,16.10
2019-06-08T07:09:48.792Z,16.20
2019-06-08T07:12:18.997Z,16.30
2019-06-08T07:14:49.223Z,16.30
2019-06-08T07:17:19.453Z,16.30
2019-06-08T07:19:50.433Z,16.40
2019-06-08T07:22:20.840Z,16.50
2019-06-08T07:24:52.383Z,16.50
2019-06-08T07:27:23.095Z,16.60
2019-06-08T07:29:53.310Z,16.70
2019-06-08T07:32:23.535Z,16.70
2019-06-08T07:34:55.161Z,16.80
2019-06-08T07:37:25.531Z,16.80
2019-06-08T07:39:56.224Z,16.80
2019-06-08T07:42:26.649Z,16.90
2019-06-08T07:44:56.954Z,16.90
2019-06-08T07:47:27.171Z,16.80
2019-06-08T07:49:57.383Z,16.80
2019-06-08T07:52:27.581Z,16.80
2019-06-08T07:54:58.581Z,16.90
2019-06-08T07:57:28.901Z,16.90
2019-06-08T08:00:00.144Z,17.00
2019-06-08T08:02:30.528Z,17.00
2019-06-08T08:05:00.863Z,17.00
2019-06-08T08:07:31.097Z,17.00
2019-06-08T08:10:01.318Z,17.10
2019-06-08T08:12:31.507Z,17.00
2019-06-08T08:15:01.737Z,17.10
2019-06-08T08:17:34.405Z,17.10
2019-06-08T08:20:06.086Z,17.20
2019-06-08T08:22:38.195Z,17.20
2019-06-08T08:25:09.695Z,17.30
2019-06-08T08:27:39.968Z,17.30
2019-06-08T08:30:10.887Z,17.30
2019-06-08T08:32:41.188Z,17.30
2019-06-08T08:35:12.439Z,17.30
2019-06-08T08:37:42.673Z,17.40
2019-06-08T08:40:13.402Z,17.50
2019-06-08T08:42:43.733Z,17.70
2019-06-08T08:45:15.043Z,17.80
2019-06-08T08:47:45.377Z,17.90
2019-06-08T08:50:18.243Z,17.90
2019-06-08T08:52:48.078Z,18.10
2019-06-08T08:55:20.584Z,18.20
2019-06-08T08:57:51.710Z,18.20
2019-06-08T09:00:24.985Z,18.00
2019-06-08T09:03:19.040Z,18.10
2019-06-08T09:05:28.112Z,18.10
2019-06-08T09:08:00.836Z,18.30
2019-06-08T09:10:30.702Z,18.50
2019-06-08T09:13:04.415Z,18.70
2019-06-08T09:15:33.034Z,18.80
2019-06-08T09:18:03.874Z,19.00
2019-06-08T09:20:34.352Z,19.10
2019-06-08T09:23:14.675Z,19.20
2019-06-08T09:25:37.440Z,19.00
2019-06-08T09:28:08.666Z,18.90
2019-06-08T09:30:38.899Z,18.80
2019-06-08T09:33:09.248Z,18.70
2019-06-08T09:35:39.497Z,18.60
2019-06-08T09:38:11.036Z,18.50
2019-06-08T09:40:41.313Z,18.60
2019-06-08T09:43:13.242Z,18.70
2019-06-08T09:45:43.441Z,18.80
2019-06-08T09:48:13.667Z,18.90
2019-06-08T09:50:43.901Z,18.90
2019-06-08T09:53:23.798Z,19.00
2019-06-08T09:55:48.161Z,19.00
2019-06-08T09:58:18.318Z,18.90
2019-06-08T10:00:49.006Z,18.70
2019-06-08T10:03:19.398Z,18.70
2019-06-08T10:05:49.682Z,18.70
2019-06-08T10:08:20.731Z,18.80
2019-06-08T10:10:51.233Z,18.80
2019-06-08T10:13:21.453Z,18.70
2019-06-08T10:15:51.833Z,18.70
2019-06-08T10:18:23.171Z,18.70
2019-06-08T10:20:54.692Z,18.90
2019-06-08T10:23:33.410Z,19.10
2019-06-08T10:25:59.575Z,19.40
2019-06-08T10:28:29.184Z,19.50
2019-06-08T10:31:01.173Z,19.50
2019-06-08T10:33:31.305Z,19.40
2019-06-08T10:36:03.120Z,19.40
2019-06-08T10:38:33.484Z,19.40
2019-06-08T10:41:09.220Z,19.40
2019-06-08T10:43:38.313Z,19.30
2019-06-08T10:46:14.742Z,19.30
2019-06-08T10:48:39.694Z,19.20
2019-06-08T10:51:12.785Z,19.00
2019-06-08T10:53:49.149Z,19.00
2019-06-08T10:56:13.972Z,19.00
2019-06-08T10:58:44.232Z,18.90
2019-06-08T11:01:14.536Z,18.90
2019-06-08T11:03:44.786Z,19.10
2019-06-08T11:06:15.002Z,19.20
2019-06-08T11:08:45.200Z,19.30
2019-06-08T11:11:19.501Z,19.40
2019-06-08T11:13:50.378Z,19.50
2019-06-08T11:16:19.992Z,19.60
2019-06-08T11:18:51.196Z,19.70
2019-06-08T11:21:21.498Z,19.60
2019-06-08T11:24:05.469Z,19.50
2019-06-08T11:26:24.438Z,19.50
2019-06-08T11:28:55.114Z,19.50
2019-06-08T11:31:28.175Z,19.60
2019-06-08T11:33:58.933Z,19.60
2019-06-08T11:36:29.175Z,19.60
2019-06-08T11:39:00.497Z,19.70
2019-06-08T11:41:31.415Z,19.80
2019-06-08T11:44:03.450Z,19.80
2019-06-08T11:46:33.622Z,19.90
2019-06-08T11:49:04.921Z,20.10
2019-06-08T11:51:37.857Z,20.10
2019-06-08T11:54:25.464Z,20.10
2019-06-08T11:56:40.779Z,20.10
2019-06-08T11:59:14.466Z,20.20
2019-06-08T12:01:44.847Z,20.40
2019-06-08T12:04:15.082Z,20.70
2019-06-08T12:06:45.332Z,20.80
2019-06-08T12:09:15.544Z,20.80
2019-06-08T12:11:48.042Z,20.60
2019-06-08T12:14:18.390Z,20.60
2019-06-08T12:16:48.750Z,20.60
2019-06-08T12:19:20.864Z,20.60
2019-06-08T12:21:50.925Z,20.60
2019-06-08T12:24:21.327Z,20.60
2019-06-08T12:26:57.740Z,20.70
2019-06-08T12:29:23.503Z,20.80
2019-06-08T12:31:53.750Z,20.80
2019-06-08T12:34:24.038Z,20.90
2019-06-08T12:36:54.273Z,20.90
2019-06-08T12:39:24.493Z,21.00
2019-06-08T12:41:55.043Z,21.00
2019-06-08T12:44:26.773Z,21.10
2019-06-08T12:46:58.579Z,21.10
2019-06-08T12:49:29.140Z,21.20
2019-06-08T12:51:59.344Z,21.20
2019-06-08T12:54:29.578Z,21.10
2019-06-08T12:57:00.833Z,21.10
2019-06-08T12:59:31.248Z,21.10
2019-06-08T13:02:01.467Z,21.10
2019-06-08T13:04:31.808Z,21.10
2019-06-08T13:07:02.037Z,21.10
2019-06-08T13:09:32.292Z,21.20
2019-06-08T13:12:02.575Z,21.30
2019-06-08T13:14:32.951Z,21.40
2019-06-08T13:17:03.159Z,21.50
2019-06-08T13:19:33.590Z,21.50
2019-06-08T13:22:03.810Z,21.50
2019-06-08T13:24:34.021Z,21.60
2019-06-08T13:27:04.461Z,21.60
2019-06-08T13:29:34.728Z,21.70
2019-06-08T13:32:07.685Z,21.80
2019-06-08T13:34:38.782Z,21.80
2019-06-08T13:37:10.525Z,21.80
2019-06-08T13:39:40.920Z,21.80
2019-06-08T13:42:11.316Z,21.80
2019-06-08T13:44:41.567Z,21.90
2019-06-08T13:47:12.593Z,21.90
2019-06-08T13:49:43.280Z,22.00
2019-06-08T13:52:13.711Z,22.20
2019-06-08T13:54:44.114Z,22.30
2019-06-08T13:57:15.009Z,22.40
2019-06-08T13:59:45.320Z,23.20
2019-06-08T14:02:18.430Z,25.80
2019-06-08T14:04:49.158Z,29.20
2019-06-08T14:07:24.515Z,32.10
2019-06-08T14:09:52.072Z,34.50
2019-06-08T14:12:24.676Z,36.50
2019-06-08T14:14:55.391Z,38.10
2019-06-08T14:17:27.076Z,39.00
2019-06-08T14:19:59.298Z,39.80
2019-06-08T14:22:30.395Z,40.30
2019-06-08T14:25:00.748Z,38.30
2019-06-08T14:27:32.945Z,35.20
2019-06-08T14:30:04.005Z,33.20
2019-06-08T14:32:34.427Z,30.90
2019-06-08T14:35:04.782Z,29.10
2019-06-08T14:37:35.004Z,27.50
2019-06-08T14:40:08.314Z,26.80
2019-06-08T14:42:38.729Z,26.30
2019-06-08T14:45:10.893Z,26.60
2019-06-08T14:47:41.274Z,29.10
2019-06-08T14:50:11.610Z,29.60
2019-06-08T14:52:41.914Z,29.20
2019-06-08T14:55:12.155Z,29.90
2019-06-08T14:57:42.463Z,32.50
2019-06-08T15:00:15.181Z,35.30
2019-06-08T15:02:49.693Z,37.60
2019-06-08T15:05:19.462Z,39.20
2019-06-08T15:07:49.296Z,40.40
2019-06-08T15:10:21.473Z,41.40
2019-06-08T15:12:53.611Z,42.00
2019-06-08T15:15:23.712Z,42.40
2019-06-08T15:17:53.927Z,42.90
2019-06-08T15:20:24.155Z,43.30
2019-06-08T15:22:54.374Z,43.60
2019-06-08T15:25:24.757Z,44.10
2019-06-08T15:27:54.946Z,44.30
2019-06-08T15:30:25.245Z,44.40
2019-06-08T15:32:55.440Z,44.40
2019-06-08T15:35:25.642Z,44.20
2019-06-08T15:37:58.241Z,44.20
2019-06-08T15:40:27.931Z,44.10
2019-06-08T15:42:58.650Z,44.10
2019-06-08T15:45:32.186Z,44.00
2019-06-08T15:48:00.908Z,44.00
2019-06-08T15:50:31.110Z,42.90
2019-06-08T15:53:01.359Z,41.00
2019-06-08T15:55:33.448Z,38.80
2019-06-08T15:58:03.511Z,36.50
2019-06-08T16:00:34.501Z,34.50
2019-06-08T16:03:05.227Z,32.80
2019-06-08T16:05:35.577Z,31.40
2019-06-08T16:08:05.795Z,30.20
2019-06-08T16:10:36.018Z,29.10
2019-06-08T16:13:06.218Z,28.20
2019-06-08T16:15:36.460Z,27.40
2019-06-08T16:18:06.680Z,27.20
2019-06-08T16:20:36.899Z,27.10
2019-06-08T16:23:07.119Z,26.90
2019-06-08T16:25:38.879Z,26.70
2019-06-08T16:28:09.346Z,26.40
2019-06-08T16:30:39.608Z,26.60
2019-06-08T16:33:09.807Z,27.00
2019-06-08T16:35:40.112Z,26.60
2019-06-08T16:38:10.346Z,26.10
2019-06-08T16:40:40.566Z,25.50
2019-06-08T16:43:10.815Z,25.10
2019-06-08T16:45:41.120Z,24.70
2019-06-08T16:48:11.409Z,24.50
2019-06-08T16:50:41.659Z,24.90
2019-06-08T16:53:11.874Z,25.40
2019-06-08T16:55:42.096Z,25.30
2019-06-08T16:58:12.307Z,25.00
2019-06-08T17:00:42.713Z,24.60
2019-06-08T17:03:12.916Z,24.40
2019-06-08T17:05:43.146Z,24.50
2019-06-08T17:08:13.353Z,24.00
2019-06-08T17:10:43.585Z,23.90
2019-06-08T17:13:13.806Z,24.00
2019-06-08T17:15:44.043Z,24.00
2019-06-08T17:18:14.266Z,24.10
2019-06-08T17:20:44.576Z,24.30
2019-06-08T17:23:14.787Z,24.10
2019-06-08T17:25:45.187Z,23.70
2019-06-08T17:28:15.419Z,23.40
2019-06-08T17:30:45.719Z,23.20
2019-06-08T17:33:16.008Z,23.00
2019-06-08T17:35:46.241Z,22.80
2019-06-08T17:38:16.492Z,22.60
2019-06-08T17:40:46.703Z,22.60
2019-06-08T17:43:17.010Z,22.50
2019-06-08T17:45:47.357Z,22.40
2019-06-08T17:48:17.577Z,22.30
2019-06-08T17:50:47.977Z,22.30
2019-06-08T17:53:18.244Z,22.30
2019-06-08T17:55:48.442Z,22.30
2019-06-08T17:58:21.167Z,22.20
2019-06-08T18:00:50.604Z,22.10
2019-06-08T18:03:20.837Z,21.90
2019-06-08T18:05:51.136Z,21.90
2019-06-08T18:08:25.170Z,21.80
2019-06-08T18:10:54.083Z,21.60
2019-06-08T18:13:24.290Z,21.60
2019-06-08T18:15:54.495Z,21.50
2019-06-08T18:18:24.732Z,21.50
2019-06-08T18:20:54.966Z,21.40
2019-06-08T18:23:25.166Z,21.30
2019-06-08T18:25:55.416Z,21.20
2019-06-08T18:28:27.729Z,21.20
2019-06-08T18:30:58.214Z,21.10
2019-06-08T18:33:28.723Z,21.10
2019-06-08T18:35:58.968Z,21.00
2019-06-08T18:38:29.194Z,20.90
2019-06-08T18:40:59.420Z,20.90
2019-06-08T18:43:29.640Z,20.80
2019-06-08T18:45:59.884Z,20.70
2019-06-08T18:48:30.104Z,20.70
2019-06-08T18:51:00.478Z,20.60
2019-06-08T18:53:30.756Z,20.50
2019-06-08T18:56:01.003Z,20.40
2019-06-08T18:58:31.312Z,20.40
2019-06-08T19:01:01.567Z,20.30
2019-06-08T19:03:31.803Z,20.20
2019-06-08T19:06:02.435Z,20.20
2019-06-08T19:08:32.917Z,20.10
2019-06-08T19:11:03.129Z,20.00
2019-06-08T19:13:34.126Z,20.00
2019-06-08T19:16:04.414Z,19.90
2019-06-08T19:18:34.623Z,19.90
2019-06-08T19:21:04.990Z,19.80
2019-06-08T19:23:37.475Z,19.80
2019-06-08T19:26:07.683Z,19.70
2019-06-08T19:28:44.953Z,19.60
2019-06-08T19:31:10.360Z,19.60
2019-06-08T19:33:41.540Z,19.50
2019-06-08T19:36:11.890Z,19.50
2019-06-08T19:38:42.738Z,19.40
2019-06-08T19:41:13.047Z,19.40
2019-06-08T19:43:44.439Z,19.30
2019-06-08T19:46:14.983Z,19.30
2019-06-08T19:48:48.210Z,19.30
2019-06-08T19:51:17.236Z,19.20
2019-06-08T19:53:52.972Z,19.20
2019-06-08T19:56:21.524Z,19.10
2019-06-08T19:59:01.046Z,19.10
2019-06-08T20:01:23.884Z,19.00
2019-06-08T20:03:54.088Z,19.00
2019-06-08T20:06:24.317Z,18.90
2019-06-08T20:08:57.312Z,18.80
2019-06-08T20:11:26.573Z,18.80
2019-06-08T20:13:57.440Z,18.80
2019-06-08T20:16:27.949Z,18.70
2019-06-08T20:18:58.580Z,18.70
2019-06-08T20:21:34.285Z,18.60
2019-06-08T20:24:04.506Z,18.60
2019-06-08T20:26:34.756Z,18.60
2019-06-08T20:29:13.138Z,18.50
2019-06-08T20:31:38.569Z,18.50
2019-06-08T20:34:08.879Z,18.40
2019-06-08T20:36:39.081Z,18.40
2019-06-08T20:39:09.732Z,18.40
2019-06-08T20:41:39.930Z,18.30
2019-06-08T20:44:10.212Z,18.20
2019-06-08T20:46:40.494Z,18.10
2019-06-08T20:49:10.765Z,18.10
2019-06-08T20:51:40.988Z,18.00
2019-06-08T20:54:11.201Z,18.00
2019-06-08T20:56:41.410Z,17.90
2019-06-08T20:59:24.284Z,17.90
2019-06-08T21:01:43.683Z,17.80
2019-06-08T21:04:13.946Z,17.80
2019-06-08T21:06:44.143Z,17.70
2019-06-08T21:09:14.432Z,17.70
2019-06-08T21:11:46.036Z,17.70
2019-06-08T21:14:17.415Z,17.60
2019-06-08T21:16:49.258Z,17.60
2019-06-08T21:19:19.689Z,17.60
2019-06-08T21:21:51.981Z,17.50
2019-06-08T21:24:21.846Z,17.50
2019-06-08T21:26:54.379Z,17.40
2019-06-08T21:29:26.734Z,17.40
2019-06-08T21:32:00.322Z,17.40
2019-06-08T21:34:27.953Z,17.30
2019-06-08T21:37:00.699Z,17.20
2019-06-08T21:39:30.094Z,17.20
2019-06-08T21:42:03.021Z,17.10
2019-06-08T21:44:32.249Z,17.10
2019-06-08T21:47:02.461Z,17.10
2019-06-08T21:49:32.698Z,17.00
2019-06-08T21:52:02.897Z,17.00
2019-06-08T21:54:33.124Z,16.90
2019-06-08T21:57:06.543Z,16.90
2019-06-08T21:59:37.748Z,16.90
2019-06-08T22:02:08.739Z,16.80
2019-06-08T22:04:38.928Z,16.70
2019-06-08T22:07:09.134Z,16.60
2019-06-08T22:09:39.355Z,16.60
2019-06-08T22:12:09.587Z,16.50
2019-06-08T22:14:39.793Z,16.50
2019-06-08T22:17:10.052Z,16.30
2019-06-08T22:19:40.229Z,16.20
2019-06-08T22:22:10.469Z,16.20
2019-06-08T22:24:40.655Z,16.20
2019-06-08T22:27:10.863Z,16.10
2019-06-08T22:29:41.054Z,16.10
2019-06-08T22:32:11.295Z,16.10
2019-06-08T22:34:41.519Z,16.10
2019-06-08T22:37:11.737Z,16.10
2019-06-08T22:39:41.977Z,16.00
2019-06-08T22:42:12.180Z,16.00
2019-06-08T22:44:42.425Z,15.90
2019-06-08T22:47:12.645Z,15.90
2019-06-08T22:49:42.855Z,15.80
2019-06-08T22:52:13.114Z,15.80
2019-06-08T22:54:43.299Z,15.70
2019-06-08T22:57:13.568Z,15.70
2019-06-08T22:59:43.780Z,15.60
2019-06-08T23:02:13.988Z,15.60
2019-06-08T23:04:44.225Z,15.50
2019-06-08T23:07:26.560Z,15.40
2019-06-08T23:09:47.853Z,15.40
2019-06-08T23:12:18.273Z,15.30
2019-06-08T23:14:48.466Z,15.30
2019-06-08T23:17:18.760Z,15.30
2019-06-08T23:19:49.065Z,15.30
2019-06-08T23:22:19.317Z,15.20
2019-06-08T23:24:49.548Z,15.10
2019-06-08T23:27:19.785Z,15.20
2019-06-08T23:29:50.006Z,15.10
2019-06-08T23:32:20.259Z,15.10
2019-06-08T23:34:50.554Z,15.10
2019-06-08T23:37:20.794Z,15.10
2019-06-08T23:39:51.018Z,15.00
2019-06-08T23:42:21.276Z,14.90
2019-06-08T23:44:51.471Z,14.90
2019-06-08T23:47:21.709Z,14.80
2019-06-08T23:49:51.938Z,14.70
2019-06-08T23:52:22.161Z,14.70
2019-06-08T23:54:52.431Z,14.60
2019-06-08T23:57:22.710Z,14.50
2019-06-08T23:59:52.915Z,14.40
